sensor_id;sensor_type;location;lat;lon;timestamp;P1;durP1;ratioP1;P2;durP2;ratioP2
77740;SDS011;66919;51.006;4.630;2024-02-16T00:00:16;6.72;;;2.50;;
77740;SDS011;66919;51.006;4.630;2024-02-16T00:02:42;4.32;;;2.65;;
77740;SDS011;66919;51.006;4.630;2024-02-16T00:05:08;3.15;;;2.50;;
77740;SDS011;66919;51.006;4.630;2024-02-16T00:07:36;4.40;;;2.40;;
77740;SDS011;66919;51.006;4.630;2024-02-16T00:10:06;4.22;;;2.60;;
77740;SDS011;66919;51.006;4.630;2024-02-16T00:12:33;3.88;;;2.03;;
77740;SDS011;66919;51.006;4.630;2024-02-16T00:14:59;4.35;;;2.45;;
77740;SDS011;66919;51.006;4.630;2024-02-16T00:17:25;4.53;;;2.67;;
77740;SDS011;66919;51.006;4.630;2024-02-16T00:19:54;3.40;;;2.05;;
77740;SDS011;66919;51.006;4.630;2024-02-16T00:22:22;4.22;;;2.42;;
77740;SDS011;66919;51.006;4.630;2024-02-16T00:24:47;3.72;;;2.35;;
77740;SDS011;66919;51.006;4.630;2024-02-16T00:27:13;6.80;;;2.85;;
77740;SDS011;66919;51.006;4.630;2024-02-16T00:29:40;5.65;;;2.60;;
77740;SDS011;66919;51.006;4.630;2024-02-16T00:32:06;3.22;;;2.55;;
77740;SDS011;66919;51.006;4.630;2024-02-16T00:34:35;3.05;;;2.38;;
77740;SDS011;66919;51.006;4.630;2024-02-16T00:37:02;6.25;;;2.67;;
77740;SDS011;66919;51.006;4.630;2024-02-16T00:39:29;4.93;;;2.47;;
77740;SDS011;66919;51.006;4.630;2024-02-16T00:41:54;4.50;;;2.60;;
77740;SDS011;66919;51.006;4.630;2024-02-16T00:44:20;8.07;;;2.58;;
77740;SDS011;66919;51.006;4.630;2024-02-16T00:46:45;4.82;;;2.00;;
77740;SDS011;66919;51.006;4.630;2024-02-16T00:49:11;4.25;;;2.50;;
77740;SDS011;66919;51.006;4.630;2024-02-16T00:51:37;4.97;;;2.80;;
77740;SDS011;66919;51.006;4.630;2024-02-16T00:54:03;5.82;;;2.95;;
77740;SDS011;66919;51.006;4.630;2024-02-16T00:56:29;5.03;;;2.50;;
77740;SDS011;66919;51.006;4.630;2024-02-16T00:58:55;3.85;;;2.35;;
77740;SDS011;66919;51.006;4.630;2024-02-16T01:01:21;6.40;;;2.75;;
77740;SDS011;66919;51.006;4.630;2024-02-16T01:03:48;5.28;;;2.42;;
77740;SDS011;66919;51.006;4.630;2024-02-16T01:06:14;3.92;;;2.42;;
77740;SDS011;66919;51.006;4.630;2024-02-16T01:08:40;4.80;;;2.40;;
77740;SDS011;66919;51.006;4.630;2024-02-16T01:11:06;5.57;;;2.70;;
77740;SDS011;66919;51.006;4.630;2024-02-16T01:13:32;3.80;;;2.45;;
77740;SDS011;66919;51.006;4.630;2024-02-16T01:15:58;4.80;;;2.30;;
77740;SDS011;66919;51.006;4.630;2024-02-16T01:18:24;5.22;;;2.40;;
77740;SDS011;66919;51.006;4.630;2024-02-16T01:20:51;5.68;;;2.53;;
77740;SDS011;66919;51.006;4.630;2024-02-16T01:23:17;4.85;;;2.50;;
77740;SDS011;66919;51.006;4.630;2024-02-16T01:25:42;5.30;;;2.85;;
77740;SDS011;66919;51.006;4.630;2024-02-16T01:28:08;3.67;;;2.22;;
77740;SDS011;66919;51.006;4.630;2024-02-16T01:30:33;5.15;;;2.47;;
77740;SDS011;66919;51.006;4.630;2024-02-16T01:32:59;4.47;;;2.33;;
77740;SDS011;66919;51.006;4.630;2024-02-16T01:35:25;3.67;;;1.95;;
77740;SDS011;66919;51.006;4.630;2024-02-16T01:37:50;5.88;;;2.22;;
77740;SDS011;66919;51.006;4.630;2024-02-16T01:40:16;4.63;;;2.40;;
77740;SDS011;66919;51.006;4.630;2024-02-16T01:42:46;4.75;;;2.08;;
77740;SDS011;66919;51.006;4.630;2024-02-16T01:45:12;3.55;;;2.20;;
77740;SDS011;66919;51.006;4.630;2024-02-16T01:47:39;4.78;;;2.70;;
77740;SDS011;66919;51.006;4.630;2024-02-16T01:50:06;4.95;;;2.40;;
77740;SDS011;66919;51.006;4.630;2024-02-16T01:52:33;9.13;;;2.63;;
77740;SDS011;66919;51.006;4.630;2024-02-16T01:55:01;4.30;;;2.42;;
77740;SDS011;66919;51.006;4.630;2024-02-16T01:57:34;3.85;;;2.58;;
77740;SDS011;66919;51.006;4.630;2024-02-16T01:59:59;4.40;;;2.60;;
77740;SDS011;66919;51.006;4.630;2024-02-16T02:02:26;6.40;;;3.00;;
77740;SDS011;66919;51.006;4.630;2024-02-16T02:04:52;4.13;;;2.50;;
77740;SDS011;66919;51.006;4.630;2024-02-16T02:07:18;7.05;;;3.10;;
77740;SDS011;66919;51.006;4.630;2024-02-16T02:09:43;4.22;;;2.63;;
77740;SDS011;66919;51.006;4.630;2024-02-16T02:12:09;3.67;;;2.40;;
77740;SDS011;66919;51.006;4.630;2024-02-16T02:14:35;7.65;;;3.03;;
77740;SDS011;66919;51.006;4.630;2024-02-16T02:17:02;5.05;;;2.70;;
77740;SDS011;66919;51.006;4.630;2024-02-16T02:19:28;3.97;;;3.22;;
77740;SDS011;66919;51.006;4.630;2024-02-16T02:21:55;6.10;;;2.78;;
77740;SDS011;66919;51.006;4.630;2024-02-16T02:24:21;6.80;;;3.72;;
77740;SDS011;66919;51.006;4.630;2024-02-16T02:26:46;4.88;;;3.08;;
77740;SDS011;66919;51.006;4.630;2024-02-16T02:29:12;6.75;;;3.40;;
77740;SDS011;66919;51.006;4.630;2024-02-16T02:31:37;4.35;;;2.40;;
77740;SDS011;66919;51.006;4.630;2024-02-16T02:34:03;6.20;;;2.90;;
77740;SDS011;66919;51.006;4.630;2024-02-16T02:36:30;5.53;;;3.20;;
77740;SDS011;66919;51.006;4.630;2024-02-16T02:38:57;4.63;;;2.78;;
77740;SDS011;66919;51.006;4.630;2024-02-16T02:41:23;6.22;;;2.83;;
77740;SDS011;66919;51.006;4.630;2024-02-16T02:43:49;5.43;;;2.65;;
77740;SDS011;66919;51.006;4.630;2024-02-16T02:46:17;5.15;;;2.15;;
77740;SDS011;66919;51.006;4.630;2024-02-16T02:48:44;6.50;;;2.70;;
77740;SDS011;66919;51.006;4.630;2024-02-16T02:51:10;8.32;;;2.70;;
77740;SDS011;66919;51.006;4.630;2024-02-16T02:53:35;5.03;;;2.50;;
77740;SDS011;66919;51.006;4.630;2024-02-16T02:56:02;8.80;;;2.75;;
77740;SDS011;66919;51.006;4.630;2024-02-16T02:58:28;6.55;;;3.05;;
77740;SDS011;66919;51.006;4.630;2024-02-16T03:00:54;5.45;;;2.60;;
77740;SDS011;66919;51.006;4.630;2024-02-16T03:03:20;4.10;;;2.53;;
77740;SDS011;66919;51.006;4.630;2024-02-16T03:05:46;4.50;;;2.83;;
77740;SDS011;66919;51.006;4.630;2024-02-16T03:08:12;6.45;;;2.85;;
77740;SDS011;66919;51.006;4.630;2024-02-16T03:10:38;7.32;;;3.67;;
77740;SDS011;66919;51.006;4.630;2024-02-16T03:13:04;3.42;;;2.55;;
77740;SDS011;66919;51.006;4.630;2024-02-16T03:15:31;5.28;;;2.95;;
77740;SDS011;66919;51.006;4.630;2024-02-16T03:17:58;6.07;;;2.90;;
77740;SDS011;66919;51.006;4.630;2024-02-16T03:20:24;8.40;;;2.90;;
77740;SDS011;66919;51.006;4.630;2024-02-16T03:22:50;4.32;;;2.47;;
77740;SDS011;66919;51.006;4.630;2024-02-16T03:25:16;5.80;;;2.70;;
77740;SDS011;66919;51.006;4.630;2024-02-16T03:27:41;8.32;;;2.75;;
77740;SDS011;66919;51.006;4.630;2024-02-16T03:30:08;4.63;;;2.75;;
77740;SDS011;66919;51.006;4.630;2024-02-16T03:32:35;5.35;;;3.00;;
77740;SDS011;66919;51.006;4.630;2024-02-16T03:35:01;3.88;;;2.65;;
77740;SDS011;66919;51.006;4.630;2024-02-16T03:37:27;3.92;;;2.63;;
77740;SDS011;66919;51.006;4.630;2024-02-16T03:39:52;5.22;;;2.70;;
77740;SDS011;66919;51.006;4.630;2024-02-16T03:42:21;3.30;;;2.67;;
77740;SDS011;66919;51.006;4.630;2024-02-16T03:44:47;8.38;;;3.13;;
77740;SDS011;66919;51.006;4.630;2024-02-16T03:47:12;5.60;;;2.92;;
77740;SDS011;66919;51.006;4.630;2024-02-16T03:49:38;4.53;;;2.17;;
77740;SDS011;66919;51.006;4.630;2024-02-16T03:52:04;5.22;;;2.90;;
77740;SDS011;66919;51.006;4.630;2024-02-16T03:54:30;6.28;;;2.65;;
77740;SDS011;66919;51.006;4.630;2024-02-16T03:56:56;5.25;;;2.35;;
77740;SDS011;66919;51.006;4.630;2024-02-16T03:59:23;5.82;;;2.78;;
77740;SDS011;66919;51.006;4.630;2024-02-16T04:01:49;4.82;;;2.75;;
77740;SDS011;66919;51.006;4.630;2024-02-16T04:04:15;4.07;;;2.33;;
77740;SDS011;66919;51.006;4.630;2024-02-16T04:06:41;4.15;;;2.50;;
77740;SDS011;66919;51.006;4.630;2024-02-16T04:09:07;7.32;;;2.42;;
77740;SDS011;66919;51.006;4.630;2024-02-16T04:11:33;4.65;;;2.60;;
77740;SDS011;66919;51.006;4.630;2024-02-16T04:13:59;4.50;;;2.60;;
77740;SDS011;66919;51.006;4.630;2024-02-16T04:16:24;4.72;;;2.45;;
77740;SDS011;66919;51.006;4.630;2024-02-16T04:18:50;7.72;;;2.78;;
77740;SDS011;66919;51.006;4.630;2024-02-16T04:21:16;5.35;;;2.85;;
77740;SDS011;66919;51.006;4.630;2024-02-16T04:23:43;5.18;;;2.83;;
77740;SDS011;66919;51.006;4.630;2024-02-16T04:26:09;5.38;;;2.55;;
77740;SDS011;66919;51.006;4.630;2024-02-16T04:28:35;3.95;;;2.53;;
77740;SDS011;66919;51.006;4.630;2024-02-16T04:31:01;9.77;;;2.88;;
77740;SDS011;66919;51.006;4.630;2024-02-16T04:33:26;4.15;;;2.22;;
77740;SDS011;66919;51.006;4.630;2024-02-16T04:35:52;4.80;;;2.83;;
77740;SDS011;66919;51.006;4.630;2024-02-16T04:38:18;5.75;;;3.13;;
77740;SDS011;66919;51.006;4.630;2024-02-16T04:40:44;4.18;;;2.47;;
77740;SDS011;66919;51.006;4.630;2024-02-16T04:43:11;4.63;;;2.45;;
77740;SDS011;66919;51.006;4.630;2024-02-16T04:45:36;4.97;;;2.78;;
77740;SDS011;66919;51.006;4.630;2024-02-16T04:48:03;4.50;;;2.67;;
77740;SDS011;66919;51.006;4.630;2024-02-16T04:50:30;7.40;;;3.10;;
77740;SDS011;66919;51.006;4.630;2024-02-16T04:52:59;5.65;;;2.95;;
77740;SDS011;66919;51.006;4.630;2024-02-16T04:55:26;7.40;;;2.80;;
77740;SDS011;66919;51.006;4.630;2024-02-16T04:57:53;4.03;;;2.70;;
77740;SDS011;66919;51.006;4.630;2024-02-16T05:00:19;5.75;;;3.05;;
77740;SDS011;66919;51.006;4.630;2024-02-16T05:02:45;7.05;;;3.10;;
77740;SDS011;66919;51.006;4.630;2024-02-16T05:05:11;6.07;;;2.55;;
77740;SDS011;66919;51.006;4.630;2024-02-16T05:07:37;6.97;;;2.22;;
77740;SDS011;66919;51.006;4.630;2024-02-16T05:10:03;5.50;;;2.80;;
77740;SDS011;66919;51.006;4.630;2024-02-16T05:12:29;3.85;;;2.42;;
77740;SDS011;66919;51.006;4.630;2024-02-16T05:14:54;7.22;;;3.17;;
77740;SDS011;66919;51.006;4.630;2024-02-16T05:17:20;4.03;;;2.90;;
77740;SDS011;66919;51.006;4.630;2024-02-16T05:19:47;7.75;;;2.97;;
77740;SDS011;66919;51.006;4.630;2024-02-16T05:22:13;4.40;;;2.40;;
77740;SDS011;66919;51.006;4.630;2024-02-16T05:24:39;4.60;;;2.72;;
77740;SDS011;66919;51.006;4.630;2024-02-16T05:27:05;7.60;;;3.03;;
77740;SDS011;66919;51.006;4.630;2024-02-16T05:29:30;8.98;;;3.60;;
77740;SDS011;66919;51.006;4.630;2024-02-16T05:31:56;5.40;;;2.95;;
77740;SDS011;66919;51.006;4.630;2024-02-16T05:34:22;10.27;;;3.00;;
77740;SDS011;66919;51.006;4.630;2024-02-16T05:36:47;8.75;;;3.03;;
77740;SDS011;66919;51.006;4.630;2024-02-16T05:39:14;4.30;;;2.65;;
77740;SDS011;66919;51.006;4.630;2024-02-16T05:41:51;5.28;;;3.33;;
77740;SDS011;66919;51.006;4.630;2024-02-16T05:44:18;6.00;;;2.95;;
77740;SDS011;66919;51.006;4.630;2024-02-16T05:46:44;6.53;;;3.15;;
77740;SDS011;66919;51.006;4.630;2024-02-16T05:49:10;7.18;;;2.58;;
77740;SDS011;66919;51.006;4.630;2024-02-16T05:51:36;6.75;;;2.78;;
77740;SDS011;66919;51.006;4.630;2024-02-16T05:54:04;8.15;;;2.97;;
77740;SDS011;66919;51.006;4.630;2024-02-16T05:56:30;5.97;;;2.50;;
77740;SDS011;66919;51.006;4.630;2024-02-16T05:58:58;7.10;;;3.10;;
77740;SDS011;66919;51.006;4.630;2024-02-16T06:01:25;7.20;;;3.03;;
77740;SDS011;66919;51.006;4.630;2024-02-16T06:03:51;4.32;;;2.45;;
77740;SDS011;66919;51.006;4.630;2024-02-16T06:06:17;9.30;;;3.40;;
77740;SDS011;66919;51.006;4.630;2024-02-16T06:08:42;6.50;;;2.70;;
77740;SDS011;66919;51.006;4.630;2024-02-16T06:11:08;8.02;;;3.50;;
77740;SDS011;66919;51.006;4.630;2024-02-16T06:13:34;4.55;;;2.55;;
77740;SDS011;66919;51.006;4.630;2024-02-16T06:15:59;4.35;;;2.50;;
77740;SDS011;66919;51.006;4.630;2024-02-16T06:18:25;5.80;;;3.10;;
77740;SDS011;66919;51.006;4.630;2024-02-16T06:20:54;4.47;;;2.80;;
77740;SDS011;66919;51.006;4.630;2024-02-16T06:23:20;5.13;;;2.97;;
77740;SDS011;66919;51.006;4.630;2024-02-16T06:25:45;7.55;;;3.17;;
77740;SDS011;66919;51.006;4.630;2024-02-16T06:28:11;7.13;;;3.15;;
77740;SDS011;66919;51.006;4.630;2024-02-16T06:30:37;3.92;;;2.63;;
77740;SDS011;66919;51.006;4.630;2024-02-16T06:33:02;9.32;;;3.17;;
77740;SDS011;66919;51.006;4.630;2024-02-16T06:35:29;5.82;;;3.10;;
77740;SDS011;66919;51.006;4.630;2024-02-16T06:37:55;6.10;;;3.00;;
77740;SDS011;66919;51.006;4.630;2024-02-16T06:40:21;4.25;;;3.10;;
77740;SDS011;66919;51.006;4.630;2024-02-16T06:42:47;11.18;;;3.42;;
77740;SDS011;66919;51.006;4.630;2024-02-16T06:45:12;7.25;;;3.10;;
77740;SDS011;66919;51.006;4.630;2024-02-16T06:47:38;7.22;;;3.40;;
77740;SDS011;66919;51.006;4.630;2024-02-16T06:50:04;6.20;;;2.83;;
77740;SDS011;66919;51.006;4.630;2024-02-16T06:52:30;5.88;;;3.15;;
77740;SDS011;66919;51.006;4.630;2024-02-16T06:54:55;6.10;;;2.97;;
77740;SDS011;66919;51.006;4.630;2024-02-16T06:57:21;7.78;;;3.35;;
77740;SDS011;66919;51.006;4.630;2024-02-16T06:59:47;9.50;;;6.13;;
77740;SDS011;66919;51.006;4.630;2024-02-16T07:02:12;8.00;;;4.10;;
77740;SDS011;66919;51.006;4.630;2024-02-16T07:04:41;8.65;;;4.13;;
77740;SDS011;66919;51.006;4.630;2024-02-16T07:07:06;6.22;;;3.30;;
77740;SDS011;66919;51.006;4.630;2024-02-16T07:09:33;8.27;;;3.88;;
77740;SDS011;66919;51.006;4.630;2024-02-16T07:11:59;7.07;;;3.63;;
77740;SDS011;66919;51.006;4.630;2024-02-16T07:14:24;8.13;;;3.38;;
77740;SDS011;66919;51.006;4.630;2024-02-16T07:16:50;11.80;;;3.80;;
77740;SDS011;66919;51.006;4.630;2024-02-16T07:19:16;8.77;;;4.15;;
77740;SDS011;66919;51.006;4.630;2024-02-16T07:21:43;12.23;;;4.40;;
77740;SDS011;66919;51.006;4.630;2024-02-16T07:24:09;6.75;;;3.40;;
77740;SDS011;66919;51.006;4.630;2024-02-16T07:26:35;7.70;;;3.78;;
77740;SDS011;66919;51.006;4.630;2024-02-16T07:29:01;15.63;;;4.45;;
77740;SDS011;66919;51.006;4.630;2024-02-16T07:31:33;7.50;;;3.92;;
77740;SDS011;66919;51.006;4.630;2024-02-16T07:34:00;11.63;;;4.05;;
77740;SDS011;66919;51.006;4.630;2024-02-16T07:36:26;7.25;;;3.58;;
77740;SDS011;66919;51.006;4.630;2024-02-16T07:38:52;10.70;;;4.05;;
77740;SDS011;66919;51.006;4.630;2024-02-16T07:41:17;6.75;;;3.90;;
77740;SDS011;66919;51.006;4.630;2024-02-16T07:43:43;7.63;;;4.10;;
77740;SDS011;66919;51.006;4.630;2024-02-16T07:46:08;8.55;;;3.78;;
77740;SDS011;66919;51.006;4.630;2024-02-16T07:48:34;6.65;;;3.50;;
77740;SDS011;66919;51.006;4.630;2024-02-16T07:51:00;9.57;;;3.72;;
77740;SDS011;66919;51.006;4.630;2024-02-16T07:53:27;10.57;;;3.83;;
77740;SDS011;66919;51.006;4.630;2024-02-16T07:55:53;9.50;;;4.07;;
77740;SDS011;66919;51.006;4.630;2024-02-16T07:58:19;11.52;;;3.85;;
77740;SDS011;66919;51.006;4.630;2024-02-16T08:00:45;9.10;;;3.88;;
77740;SDS011;66919;51.006;4.630;2024-02-16T08:03:10;7.15;;;3.33;;
77740;SDS011;66919;51.006;4.630;2024-02-16T08:05:36;10.60;;;4.30;;
77740;SDS011;66919;51.006;4.630;2024-02-16T08:08:02;9.63;;;4.20;;
77740;SDS011;66919;51.006;4.630;2024-02-16T08:10:28;10.48;;;4.50;;
77740;SDS011;66919;51.006;4.630;2024-02-16T08:12:54;8.35;;;3.60;;
77740;SDS011;66919;51.006;4.630;2024-02-16T08:15:19;8.57;;;3.95;;
77740;SDS011;66919;51.006;4.630;2024-02-16T08:17:48;8.98;;;4.13;;
77740;SDS011;66919;51.006;4.630;2024-02-16T08:20:15;6.57;;;3.42;;
77740;SDS011;66919;51.006;4.630;2024-02-16T08:22:41;9.65;;;3.67;;
77740;SDS011;66919;51.006;4.630;2024-02-16T08:25:07;9.30;;;3.65;;
77740;SDS011;66919;51.006;4.630;2024-02-16T08:27:33;9.30;;;4.20;;
77740;SDS011;66919;51.006;4.630;2024-02-16T08:29:58;10.27;;;4.35;;
77740;SDS011;66919;51.006;4.630;2024-02-16T08:32:24;11.00;;;4.72;;
77740;SDS011;66919;51.006;4.630;2024-02-16T08:34:50;8.43;;;4.13;;
77740;SDS011;66919;51.006;4.630;2024-02-16T08:37:15;11.15;;;3.88;;
77740;SDS011;66919;51.006;4.630;2024-02-16T08:39:41;9.07;;;3.90;;
77740;SDS011;66919;51.006;4.630;2024-02-16T08:42:07;9.80;;;4.15;;
77740;SDS011;66919;51.006;4.630;2024-02-16T08:44:39;20.13;;;4.93;;
77740;SDS011;66919;51.006;4.630;2024-02-16T08:47:05;14.07;;;4.57;;
77740;SDS011;66919;51.006;4.630;2024-02-16T08:49:32;11.23;;;4.47;;
77740;SDS011;66919;51.006;4.630;2024-02-16T08:51:59;13.50;;;4.22;;
77740;SDS011;66919;51.006;4.630;2024-02-16T08:54:25;13.02;;;5.10;;
77740;SDS011;66919;51.006;4.630;2024-02-16T08:56:50;8.20;;;4.80;;
77740;SDS011;66919;51.006;4.630;2024-02-16T08:59:18;10.63;;;5.15;;
77740;SDS011;66919;51.006;4.630;2024-02-16T09:01:43;8.75;;;5.03;;
77740;SDS011;66919;51.006;4.630;2024-02-16T09:04:09;10.35;;;5.20;;
77740;SDS011;66919;51.006;4.630;2024-02-16T09:06:35;9.38;;;4.75;;
77740;SDS011;66919;51.006;4.630;2024-02-16T09:09:01;11.45;;;5.13;;
77740;SDS011;66919;51.006;4.630;2024-02-16T09:11:27;11.32;;;4.85;;
77740;SDS011;66919;51.006;4.630;2024-02-16T09:13:53;10.70;;;5.63;;
77740;SDS011;66919;51.006;4.630;2024-02-16T09:16:19;12.93;;;5.97;;
77740;SDS011;66919;51.006;4.630;2024-02-16T09:18:45;13.50;;;5.50;;
77740;SDS011;66919;51.006;4.630;2024-02-16T09:21:13;18.33;;;4.85;;
77740;SDS011;66919;51.006;4.630;2024-02-16T09:23:39;10.40;;;4.80;;
77740;SDS011;66919;51.006;4.630;2024-02-16T09:26:05;12.30;;;5.32;;
77740;SDS011;66919;51.006;4.630;2024-02-16T09:28:30;8.35;;;4.85;;
77740;SDS011;66919;51.006;4.630;2024-02-16T09:30:57;11.82;;;5.22;;
77740;SDS011;66919;51.006;4.630;2024-02-16T09:33:23;14.05;;;5.68;;
77740;SDS011;66919;51.006;4.630;2024-02-16T09:35:49;14.60;;;6.10;;
77740;SDS011;66919;51.006;4.630;2024-02-16T09:38:15;9.80;;;4.10;;
77740;SDS011;66919;51.006;4.630;2024-02-16T09:40:40;10.63;;;5.00;;
77740;SDS011;66919;51.006;4.630;2024-02-16T09:43:06;14.10;;;4.85;;
77740;SDS011;66919;51.006;4.630;2024-02-16T09:45:32;15.18;;;5.22;;
77740;SDS011;66919;51.006;4.630;2024-02-16T09:47:58;10.98;;;4.95;;
77740;SDS011;66919;51.006;4.630;2024-02-16T09:50:24;13.02;;;5.30;;
77740;SDS011;66919;51.006;4.630;2024-02-16T09:52:52;11.93;;;5.82;;
77740;SDS011;66919;51.006;4.630;2024-02-16T09:55:19;11.50;;;5.53;;
77740;SDS011;66919;51.006;4.630;2024-02-16T09:57:44;10.10;;;5.18;;
77740;SDS011;66919;51.006;4.630;2024-02-16T10:00:10;8.70;;;5.55;;
77740;SDS011;66919;51.006;4.630;2024-02-16T10:02:43;14.30;;;5.32;;
77740;SDS011;66919;51.006;4.630;2024-02-16T10:05:11;10.27;;;5.22;;
77740;SDS011;66919;51.006;4.630;2024-02-16T10:07:42;12.43;;;6.28;;
77740;SDS011;66919;51.006;4.630;2024-02-16T10:10:24;10.13;;;6.03;;
77740;SDS011;66919;51.006;4.630;2024-02-16T10:13:00;13.48;;;6.20;;
77740;SDS011;66919;51.006;4.630;2024-02-16T10:15:27;8.75;;;5.68;;
77740;SDS011;66919;51.006;4.630;2024-02-16T10:20:25;14.00;;;6.18;;
77740;SDS011;66919;51.006;4.630;2024-02-16T10:23:10;10.75;;;5.30;;
77740;SDS011;66919;51.006;4.630;2024-02-16T10:25:37;12.13;;;6.25;;
77740;SDS011;66919;51.006;4.630;2024-02-16T10:28:05;12.20;;;5.95;;
77740;SDS011;66919;51.006;4.630;2024-02-16T10:30:38;13.77;;;5.55;;
77740;SDS011;66919;51.006;4.630;2024-02-16T10:33:05;17.17;;;5.97;;
77740;SDS011;66919;51.006;4.630;2024-02-16T10:35:32;11.63;;;5.70;;
77740;SDS011;66919;51.006;4.630;2024-02-16T10:38:02;10.25;;;5.75;;
77740;SDS011;66919;51.006;4.630;2024-02-16T10:40:38;12.05;;;5.05;;
77740;SDS011;66919;51.006;4.630;2024-02-16T10:43:04;11.80;;;6.10;;
77740;SDS011;66919;51.006;4.630;2024-02-16T10:45:34;14.32;;;6.32;;
77740;SDS011;66919;51.006;4.630;2024-02-16T10:48:02;9.55;;;5.85;;
77740;SDS011;66919;51.006;4.630;2024-02-16T10:50:28;13.02;;;6.78;;
77740;SDS011;66919;51.006;4.630;2024-02-16T10:52:54;12.02;;;6.40;;
77740;SDS011;66919;51.006;4.630;2024-02-16T10:55:22;9.90;;;6.20;;
77740;SDS011;66919;51.006;4.630;2024-02-16T10:57:49;10.57;;;6.30;;
77740;SDS011;66919;51.006;4.630;2024-02-16T11:00:17;17.10;;;6.35;;
77740;SDS011;66919;51.006;4.630;2024-02-16T11:05:41;19.50;;;6.97;;
77740;SDS011;66919;51.006;4.630;2024-02-16T11:08:14;10.43;;;6.18;;
77740;SDS011;66919;51.006;4.630;2024-02-16T11:10:41;11.52;;;6.22;;
77740;SDS011;66919;51.006;4.630;2024-02-16T11:13:39;13.05;;;7.35;;
77740;SDS011;66919;51.006;4.630;2024-02-16T11:16:09;18.20;;;6.90;;
77740;SDS011;66919;51.006;4.630;2024-02-16T11:18:38;14.13;;;7.07;;
77740;SDS011;66919;51.006;4.630;2024-02-16T11:21:05;12.88;;;6.78;;
77740;SDS011;66919;51.006;4.630;2024-02-16T11:23:34;14.73;;;7.18;;
77740;SDS011;66919;51.006;4.630;2024-02-16T11:28:34;11.95;;;7.10;;
77740;SDS011;66919;51.006;4.630;2024-02-16T11:31:01;12.88;;;7.22;;
77740;SDS011;66919;51.006;4.630;2024-02-16T11:33:27;14.35;;;7.25;;
77740;SDS011;66919;51.006;4.630;2024-02-16T11:35:57;13.52;;;7.93;;
77740;SDS011;66919;51.006;4.630;2024-02-16T11:38:27;15.75;;;8.30;;
77740;SDS011;66919;51.006;4.630;2024-02-16T11:41:28;16.95;;;8.73;;
77740;SDS011;66919;51.006;4.630;2024-02-16T11:43:47;17.83;;;8.70;;
77740;SDS011;66919;51.006;4.630;2024-02-16T11:46:13;19.25;;;9.52;;
77740;SDS011;66919;51.006;4.630;2024-02-16T11:48:40;17.17;;;9.00;;
77740;SDS011;66919;51.006;4.630;2024-02-16T11:51:06;16.63;;;9.77;;
77740;SDS011;66919;51.006;4.630;2024-02-16T11:53:32;21.85;;;9.55;;
77740;SDS011;66919;51.006;4.630;2024-02-16T11:55:58;14.63;;;9.55;;
77740;SDS011;66919;51.006;4.630;2024-02-16T11:58:25;15.30;;;10.52;;
77740;SDS011;66919;51.006;4.630;2024-02-16T12:00:51;16.27;;;9.25;;
77740;SDS011;66919;51.006;4.630;2024-02-16T12:03:18;14.93;;;9.75;;
77740;SDS011;66919;51.006;4.630;2024-02-16T12:05:55;19.17;;;10.50;;
77740;SDS011;66919;51.006;4.630;2024-02-16T12:08:31;19.73;;;10.40;;
77740;SDS011;66919;51.006;4.630;2024-02-16T12:10:58;17.35;;;10.27;;
77740;SDS011;66919;51.006;4.630;2024-02-16T12:13:24;14.00;;;9.63;;
77740;SDS011;66919;51.006;4.630;2024-02-16T12:15:51;18.33;;;10.63;;
77740;SDS011;66919;51.006;4.630;2024-02-16T12:18:23;14.35;;;9.73;;
77740;SDS011;66919;51.006;4.630;2024-02-16T12:20:59;11.57;;;8.13;;
77740;SDS011;66919;51.006;4.630;2024-02-16T12:23:29;13.57;;;8.50;;
77740;SDS011;66919;51.006;4.630;2024-02-16T12:25:58;12.80;;;8.32;;
77740;SDS011;66919;51.006;4.630;2024-02-16T12:28:28;11.38;;;8.70;;
77740;SDS011;66919;51.006;4.630;2024-02-16T12:30:57;10.68;;;8.05;;
77740;SDS011;66919;51.006;4.630;2024-02-16T12:33:23;10.63;;;8.27;;
77740;SDS011;66919;51.006;4.630;2024-02-16T12:35:49;9.73;;;8.13;;
77740;SDS011;66919;51.006;4.630;2024-02-16T12:38:15;10.20;;;7.78;;
77740;SDS011;66919;51.006;4.630;2024-02-16T12:40:43;8.25;;;7.18;;
77740;SDS011;66919;51.006;4.630;2024-02-16T12:43:08;10.98;;;7.55;;
77740;SDS011;66919;51.006;4.630;2024-02-16T12:45:36;15.07;;;8.02;;
77740;SDS011;66919;51.006;4.630;2024-02-16T12:48:02;9.07;;;7.93;;
77740;SDS011;66919;51.006;4.630;2024-02-16T12:50:29;11.15;;;7.75;;
77740;SDS011;66919;51.006;4.630;2024-02-16T12:52:55;12.18;;;8.45;;
77740;SDS011;66919;51.006;4.630;2024-02-16T12:55:22;10.85;;;7.95;;
77740;SDS011;66919;51.006;4.630;2024-02-16T12:57:48;12.13;;;8.55;;
77740;SDS011;66919;51.006;4.630;2024-02-16T13:00:14;9.10;;;7.75;;
77740;SDS011;66919;51.006;4.630;2024-02-16T13:02:40;12.20;;;9.35;;
77740;SDS011;66919;51.006;4.630;2024-02-16T13:05:06;14.30;;;9.38;;
77740;SDS011;66919;51.006;4.630;2024-02-16T13:07:33;13.45;;;9.73;;
77740;SDS011;66919;51.006;4.630;2024-02-16T13:09:59;13.73;;;9.45;;
77740;SDS011;66919;51.006;4.630;2024-02-16T13:12:24;13.88;;;10.93;;
77740;SDS011;66919;51.006;4.630;2024-02-16T13:14:50;13.60;;;10.98;;
77740;SDS011;66919;51.006;4.630;2024-02-16T13:17:16;14.50;;;11.52;;
77740;SDS011;66919;51.006;4.630;2024-02-16T13:19:42;16.52;;;12.65;;
77740;SDS011;66919;51.006;4.630;2024-02-16T13:22:07;18.00;;;14.18;;
77740;SDS011;66919;51.006;4.630;2024-02-16T13:24:33;22.42;;;15.90;;
77740;SDS011;66919;51.006;4.630;2024-02-16T13:26:59;22.20;;;16.50;;
77740;SDS011;66919;51.006;4.630;2024-02-16T13:29:25;21.00;;;17.33;;
77740;SDS011;66919;51.006;4.630;2024-02-16T13:31:51;22.63;;;17.90;;
77740;SDS011;66919;51.006;4.630;2024-02-16T13:34:17;23.17;;;17.58;;
77740;SDS011;66919;51.006;4.630;2024-02-16T13:36:42;24.70;;;19.20;;
77740;SDS011;66919;51.006;4.630;2024-02-16T13:39:08;25.35;;;18.45;;
77740;SDS011;66919;51.006;4.630;2024-02-16T13:41:34;23.25;;;18.70;;
77740;SDS011;66919;51.006;4.630;2024-02-16T13:44:00;26.27;;;19.27;;
77740;SDS011;66919;51.006;4.630;2024-02-16T13:46:26;24.85;;;19.77;;
77740;SDS011;66919;51.006;4.630;2024-02-16T13:48:51;25.60;;;20.70;;
77740;SDS011;66919;51.006;4.630;2024-02-16T13:51:17;26.27;;;19.73;;
77740;SDS011;66919;51.006;4.630;2024-02-16T13:53:44;25.63;;;20.08;;
77740;SDS011;66919;51.006;4.630;2024-02-16T13:56:10;24.98;;;17.75;;
77740;SDS011;66919;51.006;4.630;2024-02-16T13:58:35;19.73;;;17.27;;
77740;SDS011;66919;51.006;4.630;2024-02-16T14:01:02;22.80;;;18.00;;
77740;SDS011;66919;51.006;4.630;2024-02-16T14:03:28;18.92;;;13.93;;
77740;SDS011;66919;51.006;4.630;2024-02-16T14:05:54;12.30;;;10.82;;
77740;SDS011;66919;51.006;4.630;2024-02-16T14:08:21;13.00;;;11.50;;
77740;SDS011;66919;51.006;4.630;2024-02-16T14:10:47;12.80;;;10.48;;
77740;SDS011;66919;51.006;4.630;2024-02-16T14:13:13;8.60;;;7.80;;
77740;SDS011;66919;51.006;4.630;2024-02-16T14:15:39;7.63;;;6.63;;
77740;SDS011;66919;51.006;4.630;2024-02-16T14:18:04;9.32;;;6.07;;
77740;SDS011;66919;51.006;4.630;2024-02-16T14:20:32;6.57;;;5.88;;
77740;SDS011;66919;51.006;4.630;2024-02-16T14:22:57;7.85;;;6.38;;
77740;SDS011;66919;51.006;4.630;2024-02-16T14:25:23;8.00;;;6.25;;
77740;SDS011;66919;51.006;4.630;2024-02-16T14:27:50;9.18;;;6.60;;
77740;SDS011;66919;51.006;4.630;2024-02-16T14:30:16;7.35;;;6.55;;
77740;SDS011;66919;51.006;4.630;2024-02-16T14:32:41;6.75;;;6.13;;
77740;SDS011;66919;51.006;4.630;2024-02-16T14:35:07;7.15;;;6.45;;
77740;SDS011;66919;51.006;4.630;2024-02-16T14:37:33;8.60;;;5.85;;
77740;SDS011;66919;51.006;4.630;2024-02-16T14:39:59;6.72;;;6.05;;
77740;SDS011;66919;51.006;4.630;2024-02-16T14:42:26;7.75;;;5.97;;
77740;SDS011;66919;51.006;4.630;2024-02-16T14:44:53;9.18;;;5.20;;